Northwood, OH (43619)

6:01 PM EDT on May 22, 2015 (GMT -0400)
KOHOREGO3 | | Change Station
CLOSE
Current Station
Personal Weather Station
Location: Oregon, OH
Elevation: 591 ft
Nearby Weather Stations

Elev 591 ft 41.63 °N, 83.44 °W | Updated 4 seconds ago

Clear
Clear
68.5 °F
Feels Like 68.5 °F
N
0.0
Wind Variable Wind from North
Gusts 1.0 mph

Today
High -- | Low -- °F
--% Chance of Precip.
Yesterday
High -- | Low -- °F
Precip. -- in
6:08 AM 8:53 PM
Waxing Crescent, 24% visible
Pressure 30.23 in
Visibility 10.0 miles
Clouds Clear
Dew Point 29 °F
Humidity 23%
Rainfall 0.00 in
Snow Depth Not available.
UV 3 out of 12
Pollen 9.40 out of 12
Air Quality Not available.
Flu Activity Local Activity
METAR KTDZ 222153Z AUTO 35010G16KT 10SM CLR 21/M03 A3023 RMK AO2 SLP235 T02061033 TSNO

More Conditions Fewer Conditions

Pressure 30.23 in
Visibility 10.0 miles
Clouds Clear
Dew Point 29 °F
Humidity 23%
Rainfall 0.00 in
Snow Depth Not available.
UV 3 out of 12
Pollen 9.40 out of 12
Air Quality Not available.
Flu Activity Local Activity
METAR KTDZ 222153Z AUTO 35010G16KT 10SM CLR 21/M03 A3023 RMK AO2 SLP235 T02061033 TSNO

More Conditions Fewer Conditions

10-Day Weather Forecast

Almanac

Astronomy

May. 22, 2015 Rise Set
Actual Time
Civil Twilight
Nautical Twilight
Astronomical Twilight
Moon
Length of Visible Light
Length of Day
Tomorrow will be .
, % of the Moon is Illuminated

Today's Extremes

State Highs State Lows

Community

WunderPhotos

Upload Photos

1,823,318 photos uploaded!

WunderBlogs® & News

Nearby

Air Quality

  Air Quality AQ Index Pollutant
Not available.

Snow Depth

Station Depth Elevation

Earthquake Activity

City Distance Mag. Time & Date
Minimum magnitude displayed is 2.5.

Coastal Water Temperatures

Place Temperature

Stations

Nearby Weather Stations

Station Location Temp. Windchill Dew Point Humidity Wind Precip. Elev Updated Type